In Rescue
 
Wind Gusting 00 knots
08
May 13, 2021 11:04 AM EDT
Weather Information
Wind Direction
  030 °
Wind Speed
  08 kt (9 mph)
Wind Gust
  00 kt (0 mph)
Altimeter
30.42 in
Visibility
10 SM
Temperature
16° C
61° F
Dewpoint
00° C
32° F
Humidity
34%
Sky Condition
Clear
VFR

METAR KIMS 131504Z AUTO 03008KT 10SM CLR 16/00 A3042 RMK AO2

FAA Disclaimer: The data displayed is for advisory purposes only and is not to be used for flight planning or operations.